createdAt,value
2018-03-11T00:00:18.679Z,78.18
2018-03-11T00:01:25.771Z,78.21
2018-03-11T00:02:32.522Z,78.24
2018-03-11T00:03:39.333Z,78.32
2018-03-11T00:04:46.073Z,78.35
2018-03-11T00:05:52.800Z,78.35
2018-03-11T00:06:59.504Z,78.33
2018-03-11T00:08:06.261Z,78.34
2018-03-11T00:09:13.008Z,78.34
2018-03-11T00:10:19.745Z,78.36
2018-03-11T00:11:26.472Z,78.36
2018-03-11T00:12:33.180Z,78.40
2018-03-11T00:13:39.944Z,78.41
2018-03-11T00:14:46.647Z,78.43
2018-03-11T00:15:53.343Z,78.42
2018-03-11T00:17:00.044Z,78.43
2018-03-11T00:18:06.764Z,78.41
2018-03-11T00:19:13.551Z,78.41
2018-03-11T00:20:20.725Z,78.43
2018-03-11T00:21:27.452Z,78.42
2018-03-11T00:22:34.164Z,78.45
2018-03-11T00:23:40.856Z,78.36
2018-03-11T00:24:47.545Z,78.41
2018-03-11T00:25:54.291Z,78.41
2018-03-11T00:27:06.129Z,78.41
2018-03-11T00:28:07.844Z,78.42
2018-03-11T00:29:14.554Z,78.40
2018-03-11T00:30:21.296Z,78.42
2018-03-11T00:31:27.973Z,78.41
2018-03-11T00:32:34.857Z,78.43
2018-03-11T00:33:41.656Z,78.40
2018-03-11T00:34:48.420Z,78.48
2018-03-11T00:35:55.144Z,78.54
2018-03-11T00:37:01.919Z,78.55
2018-03-11T00:38:08.656Z,78.59
2018-03-11T00:39:15.336Z,78.62
2018-03-11T00:40:22.039Z,78.65
2018-03-11T00:41:28.751Z,78.66
2018-03-11T00:42:35.461Z,78.71
2018-03-11T00:43:42.252Z,78.72
2018-03-11T00:44:49.421Z,78.73
2018-03-11T00:45:56.107Z,78.73
2018-03-11T00:47:02.796Z,78.76
2018-03-11T00:48:09.536Z,78.79
2018-03-11T00:49:16.239Z,78.84
2018-03-11T00:50:22.983Z,78.84
2018-03-11T00:51:29.710Z,78.86
2018-03-11T00:52:36.603Z,78.87
2018-03-11T00:53:43.399Z,78.92
2018-03-11T00:54:50.116Z,78.99
2018-03-11T00:55:56.807Z,79.02
2018-03-11T00:57:03.499Z,79.00
2018-03-11T00:58:10.191Z,79.02
2018-03-11T00:59:16.867Z,79.05
2018-03-11T01:00:23.653Z,79.05
2018-03-11T01:01:30.452Z,79.07
2018-03-11T01:02:37.191Z,79.11
2018-03-11T01:03:43.863Z,79.12
2018-03-11T01:04:50.539Z,79.11
2018-03-11T01:05:57.255Z,79.08
2018-03-11T01:07:03.937Z,79.09
2018-03-11T01:08:10.668Z,79.11
2018-03-11T01:09:17.352Z,79.10
2018-03-11T01:10:24.056Z,79.11
2018-03-11T01:11:30.892Z,79.10
2018-03-11T01:12:37.612Z,79.14
2018-03-11T01:13:44.378Z,79.11
2018-03-11T01:14:51.208Z,79.11
2018-03-11T01:15:58.031Z,79.13
2018-03-11T01:17:04.831Z,79.17
2018-03-11T01:18:11.591Z,79.25
2018-03-11T01:19:18.357Z,79.30
2018-03-11T01:20:25.175Z,79.36
2018-03-11T01:21:32.043Z,79.37
2018-03-11T01:22:39.017Z,79.44
2018-03-11T01:23:45.852Z,79.48
2018-03-11T01:24:52.596Z,79.51
2018-03-11T01:25:59.291Z,79.52
2018-03-11T01:27:05.971Z,79.53
2018-03-11T01:28:12.743Z,79.53
2018-03-11T01:29:19.428Z,79.52
2018-03-11T01:30:26.131Z,79.53
2018-03-11T01:31:32.821Z,79.54
2018-03-11T01:32:39.553Z,79.51
2018-03-11T01:33:46.232Z,79.54
2018-03-11T01:34:52.981Z,79.53
2018-03-11T01:35:59.705Z,79.57
2018-03-11T01:37:06.381Z,79.59
2018-03-11T01:38:13.099Z,79.59
2018-03-11T01:39:19.762Z,79.59
2018-03-11T01:40:26.464Z,79.61
2018-03-11T01:41:33.243Z,79.64
2018-03-11T01:42:39.921Z,79.63
2018-03-11T01:43:46.638Z,79.65
2018-03-11T01:44:53.320Z,79.69
2018-03-11T01:46:00.025Z,79.71
2018-03-11T01:47:06.723Z,79.71
2018-03-11T01:48:13.521Z,79.74
2018-03-11T01:49:20.191Z,79.80
2018-03-11T01:50:26.880Z,79.83
2018-03-11T01:51:33.652Z,79.84
2018-03-11T01:52:40.351Z,79.87
2018-03-11T01:53:47.175Z,79.89
2018-03-11T01:54:54.097Z,79.93
2018-03-11T01:56:00.895Z,79.95
2018-03-11T01:57:07.592Z,79.97
2018-03-11T01:58:14.362Z,79.98
2018-03-11T01:59:21.055Z,79.99
2018-03-11T02:00:27.959Z,80.04
2018-03-11T02:01:34.904Z,80.06
2018-03-11T02:02:41.693Z,80.11
2018-03-11T02:03:48.352Z,80.13
2018-03-11T02:04:55.156Z,80.18
2018-03-11T02:06:01.848Z,80.16
2018-03-11T02:07:08.716Z,80.17
2018-03-11T02:08:15.444Z,80.20
2018-03-11T02:09:22.161Z,80.15
2018-03-11T02:10:28.856Z,80.18
2018-03-11T02:11:35.623Z,80.15
2018-03-11T02:12:42.288Z,80.15
2018-03-11T02:13:49.015Z,80.16
2018-03-11T02:14:55.691Z,80.18
2018-03-11T02:16:02.460Z,80.21
2018-03-11T02:17:09.228Z,80.26
2018-03-11T02:18:16.004Z,80.33
2018-03-11T02:19:22.713Z,80.36
2018-03-11T02:20:29.411Z,80.34
2018-03-11T02:21:36.096Z,80.35
2018-03-11T02:22:42.863Z,80.34
2018-03-11T02:23:49.560Z,80.37
2018-03-11T02:24:56.275Z,80.35
2018-03-11T02:26:02.977Z,80.35
2018-03-11T02:27:09.676Z,80.34
2018-03-11T02:28:16.396Z,80.39
2018-03-11T02:29:23.108Z,80.38
2018-03-11T02:30:29.780Z,80.37
2018-03-11T02:31:36.474Z,80.37
2018-03-11T02:32:43.176Z,80.42
2018-03-11T02:33:49.881Z,80.39
2018-03-11T02:34:56.609Z,80.43
2018-03-11T02:36:03.371Z,80.43
2018-03-11T02:37:10.068Z,80.42
2018-03-11T02:38:16.767Z,80.40
2018-03-11T02:39:23.528Z,80.40
2018-03-11T02:40:30.220Z,80.39
2018-03-11T02:41:37.252Z,80.38
2018-03-11T02:42:43.928Z,80.37
2018-03-11T02:43:50.641Z,80.37
2018-03-11T02:44:57.387Z,80.37
2018-03-11T02:46:04.061Z,80.35
2018-03-11T02:47:10.757Z,80.34
2018-03-11T02:48:17.447Z,80.32
2018-03-11T02:49:24.157Z,80.33
2018-03-11T02:50:30.833Z,80.32
2018-03-11T02:51:37.515Z,80.33
2018-03-11T02:52:44.300Z,80.34
2018-03-11T02:53:51.001Z,80.29
2018-03-11T02:54:57.699Z,80.31
2018-03-11T02:56:04.380Z,80.31
2018-03-11T02:57:11.083Z,80.33
2018-03-11T02:58:17.769Z,80.33
2018-03-11T02:59:24.477Z,80.35
2018-03-11T03:00:31.240Z,80.36
2018-03-11T03:01:37.991Z,80.37
2018-03-11T03:02:44.689Z,80.35
2018-03-11T03:03:51.408Z,80.31
2018-03-11T03:04:58.087Z,80.31
2018-03-11T03:06:04.780Z,80.31
2018-03-11T03:07:11.580Z,80.31
2018-03-11T03:08:18.268Z,80.31
2018-03-11T03:09:24.975Z,80.33
2018-03-11T03:10:31.687Z,80.36
2018-03-11T03:11:38.384Z,80.35
2018-03-11T03:12:45.052Z,80.31
2018-03-11T03:13:51.760Z,80.37
2018-03-11T03:14:58.533Z,80.34
2018-03-11T03:16:05.224Z,80.33
2018-03-11T03:17:11.905Z,80.34
2018-03-11T03:18:18.604Z,80.31
2018-03-11T03:19:25.332Z,80.32
2018-03-11T03:20:32.173Z,80.33
2018-03-11T03:21:38.844Z,80.33
2018-03-11T03:22:45.512Z,80.31
2018-03-11T03:23:52.219Z,80.29
2018-03-11T03:24:58.908Z,80.31
2018-03-11T03:26:05.614Z,80.35
2018-03-11T03:27:12.308Z,80.36
2018-03-11T03:28:19.102Z,80.39
2018-03-11T03:29:25.794Z,80.38
2018-03-11T03:30:32.482Z,80.40
2018-03-11T03:31:39.201Z,80.46
2018-03-11T03:32:45.896Z,80.49
2018-03-11T03:33:52.621Z,80.49
2018-03-11T03:34:59.385Z,80.53
2018-03-11T03:36:06.061Z,80.59
2018-03-11T03:37:12.800Z,80.63
2018-03-11T03:38:19.923Z,80.64
2018-03-11T03:39:26.634Z,80.72
2018-03-11T03:40:33.415Z,80.76
2018-03-11T03:41:40.161Z,80.79
2018-03-11T03:42:46.915Z,80.80
2018-03-11T03:43:53.639Z,80.84
2018-03-11T03:45:00.320Z,80.87
2018-03-11T03:46:07.048Z,80.91
2018-03-11T03:47:13.800Z,80.95
2018-03-11T03:48:20.526Z,81.02
2018-03-11T03:49:27.268Z,81.03
2018-03-11T03:50:33.944Z,81.08
2018-03-11T03:51:40.632Z,81.15
2018-03-11T03:52:47.306Z,81.20
2018-03-11T03:53:54.095Z,81.22
2018-03-11T03:55:00.804Z,81.28
2018-03-11T03:56:07.651Z,81.28
2018-03-11T03:57:14.424Z,81.37
2018-03-11T03:58:21.099Z,81.39
2018-03-11T03:59:27.790Z,81.43
2018-03-11T04:00:34.483Z,81.45
2018-03-11T04:01:41.184Z,81.52
2018-03-11T04:02:47.896Z,81.53
2018-03-11T04:03:54.601Z,81.58
2018-03-11T04:05:01.339Z,81.62
2018-03-11T04:06:08.023Z,81.69
2018-03-11T04:07:14.940Z,81.72
2018-03-11T04:08:21.627Z,81.76
2018-03-11T04:09:28.371Z,81.80
2018-03-11T04:10:35.156Z,81.87
2018-03-11T04:11:41.856Z,81.91
2018-03-11T04:12:48.545Z,81.94
2018-03-11T04:13:55.239Z,81.99
2018-03-11T04:15:02.007Z,82.06
2018-03-11T04:16:08.717Z,82.13
2018-03-11T04:17:15.425Z,82.18
2018-03-11T04:18:22.120Z,82.22
2018-03-11T04:19:28.828Z,82.27
2018-03-11T04:20:35.543Z,82.34
2018-03-11T04:21:42.309Z,82.41
2018-03-11T04:22:48.964Z,82.46
2018-03-11T04:23:55.684Z,82.51
2018-03-11T04:25:02.449Z,82.56
2018-03-11T04:26:09.359Z,82.63
2018-03-11T04:27:16.135Z,82.71
2018-03-11T04:28:22.844Z,82.75
2018-03-11T04:29:29.559Z,82.81
2018-03-11T04:30:36.376Z,82.85
2018-03-11T04:31:43.084Z,82.88
2018-03-11T04:32:49.767Z,82.97
2018-03-11T04:33:56.469Z,83.00
2018-03-11T04:35:03.145Z,83.04
2018-03-11T04:36:09.912Z,83.09
2018-03-11T04:37:16.599Z,83.15
2018-03-11T04:38:23.304Z,83.18
2018-03-11T04:39:30.043Z,83.22
2018-03-11T04:40:36.841Z,83.28
2018-03-11T04:41:43.559Z,83.34
2018-03-11T04:42:50.244Z,83.36
2018-03-11T04:43:56.955Z,83.42
2018-03-11T04:45:03.648Z,83.42
2018-03-11T04:46:10.348Z,83.47
2018-03-11T04:47:17.132Z,83.57
2018-03-11T04:48:23.827Z,83.57
2018-03-11T04:49:30.551Z,83.62
2018-03-11T04:50:37.256Z,83.64
2018-03-11T04:51:43.941Z,83.69
2018-03-11T04:52:50.648Z,83.71
2018-03-11T04:53:57.350Z,83.77
2018-03-11T04:55:04.076Z,83.80
2018-03-11T04:56:10.796Z,83.87
2018-03-11T04:57:17.471Z,83.93
2018-03-11T04:58:24.176Z,83.97
2018-03-11T04:59:30.863Z,84.01
2018-03-11T05:00:37.547Z,84.05
2018-03-11T05:01:44.228Z,84.13
2018-03-11T05:02:50.972Z,84.20
2018-03-11T05:03:57.691Z,84.22
2018-03-11T05:05:04.368Z,84.28
2018-03-11T05:06:11.092Z,84.32
2018-03-11T05:07:18.189Z,84.35
2018-03-11T05:08:24.888Z,84.39
2018-03-11T05:09:31.617Z,84.43
2018-03-11T05:10:38.357Z,84.51
2018-03-11T05:11:45.052Z,84.55
2018-03-11T05:12:51.753Z,84.63
2018-03-11T05:13:58.460Z,84.67
2018-03-11T05:15:05.148Z,84.71
2018-03-11T05:16:11.824Z,84.79
2018-03-11T05:17:18.575Z,84.83
2018-03-11T05:18:25.741Z,84.85
2018-03-11T05:19:32.448Z,84.91
2018-03-11T05:20:39.296Z,84.95
2018-03-11T05:21:45.975Z,85.02
2018-03-11T05:22:52.710Z,85.05
2018-03-11T05:23:59.385Z,85.09
2018-03-11T05:25:06.108Z,85.17
2018-03-11T05:26:12.799Z,85.25
2018-03-11T05:27:19.491Z,85.26
2018-03-11T05:28:26.201Z,85.32
2018-03-11T05:29:33.040Z,85.36
2018-03-11T05:30:39.776Z,85.42
2018-03-11T05:31:46.448Z,85.48
2018-03-11T05:32:53.408Z,85.52
2018-03-11T05:34:00.129Z,85.56
2018-03-11T05:35:06.840Z,85.62
2018-03-11T05:36:13.608Z,85.68
2018-03-11T05:37:20.289Z,85.72
2018-03-11T05:38:27.048Z,85.76
2018-03-11T05:39:33.772Z,85.82
2018-03-11T05:40:40.445Z,85.86
2018-03-11T05:41:47.127Z,85.91
2018-03-11T05:42:53.900Z,85.98
2018-03-11T05:44:00.571Z,86.00
2018-03-11T05:45:07.280Z,86.05
2018-03-11T05:46:13.987Z,86.10
2018-03-11T05:47:20.690Z,86.16
2018-03-11T05:48:27.376Z,86.20
2018-03-11T05:49:34.171Z,86.26
2018-03-11T05:50:40.867Z,86.31
2018-03-11T05:51:47.539Z,86.34
2018-03-11T05:52:54.263Z,86.39
2018-03-11T05:54:00.944Z,86.46
2018-03-11T05:55:07.668Z,86.46
2018-03-11T05:56:14.424Z,86.51
2018-03-11T05:57:21.120Z,86.59
2018-03-11T05:58:27.828Z,86.63
2018-03-11T05:59:34.520Z,86.69
2018-03-11T06:00:41.301Z,86.73
2018-03-11T06:01:48.085Z,86.75
2018-03-11T06:02:54.787Z,86.79
2018-03-11T06:04:01.484Z,86.84
2018-03-11T06:05:08.314Z,86.88
2018-03-11T06:06:15.096Z,86.92
2018-03-11T06:07:21.772Z,86.99
2018-03-11T06:08:28.487Z,87.02
2018-03-11T06:09:35.219Z,87.06
2018-03-11T06:10:41.938Z,87.08
2018-03-11T06:11:49.113Z,87.12
2018-03-11T06:12:55.835Z,87.17
2018-03-11T06:14:03.020Z,87.20
2018-03-11T06:15:09.728Z,87.25
2018-03-11T06:16:16.407Z,87.28
2018-03-11T06:17:23.109Z,87.33
2018-03-11T06:18:29.884Z,87.37
2018-03-11T06:19:36.627Z,87.40
2018-03-11T06:20:43.303Z,87.46
2018-03-11T06:21:49.983Z,87.50
2018-03-11T06:22:56.683Z,87.52
2018-03-11T06:24:03.361Z,87.55
2018-03-11T06:25:10.074Z,87.58
2018-03-11T06:26:16.867Z,87.62
2018-03-11T06:27:23.528Z,87.68
2018-03-11T06:28:30.234Z,87.69
2018-03-11T06:29:36.991Z,87.80
2018-03-11T06:30:43.732Z,87.81
2018-03-11T06:31:50.732Z,87.85
2018-03-11T06:32:57.424Z,87.88
2018-03-11T06:34:04.113Z,87.90
2018-03-11T06:35:10.891Z,87.98
2018-03-11T06:36:17.568Z,88.04
2018-03-11T06:37:24.285Z,88.05
2018-03-11T06:38:31.208Z,88.10
2018-03-11T06:39:37.906Z,88.10
2018-03-11T06:40:44.622Z,88.16
2018-03-11T06:41:51.406Z,88.22
2018-03-11T06:42:58.100Z,88.27
2018-03-11T06:44:04.896Z,88.31
2018-03-11T06:45:11.591Z,88.36
2018-03-11T06:46:18.315Z,88.38
2018-03-11T06:47:24.976Z,88.44
2018-03-11T06:48:31.749Z,88.47
2018-03-11T06:49:38.476Z,88.51
2018-03-11T06:50:45.176Z,88.54
2018-03-11T06:51:51.909Z,88.55
2018-03-11T06:52:58.588Z,88.57
2018-03-11T06:54:05.340Z,88.60
2018-03-11T06:55:12.048Z,88.66
2018-03-11T06:56:18.741Z,88.66
2018-03-11T06:57:25.436Z,88.67
2018-03-11T06:58:32.106Z,88.71
2018-03-11T06:59:38.816Z,88.72
2018-03-11T07:00:45.507Z,88.76
2018-03-11T07:01:52.435Z,88.76
2018-03-11T07:02:59.109Z,88.79
2018-03-11T07:04:05.856Z,88.83
2018-03-11T07:05:12.556Z,88.85
2018-03-11T07:06:19.285Z,88.87
2018-03-11T07:07:26.013Z,88.90
2018-03-11T07:08:32.748Z,88.96
2018-03-11T07:09:39.465Z,88.95
2018-03-11T07:10:46.166Z,89.01
2018-03-11T07:11:52.870Z,89.04
2018-03-11T07:12:59.552Z,89.08
2018-03-11T07:14:06.249Z,89.09
2018-03-11T07:15:13.000Z,89.13
2018-03-11T07:16:19.695Z,89.13
2018-03-11T07:17:26.397Z,89.15
2018-03-11T07:18:33.104Z,89.22
2018-03-11T07:19:39.846Z,89.22
2018-03-11T07:20:46.577Z,89.24
2018-03-11T07:21:53.264Z,89.28
2018-03-11T07:22:59.974Z,89.27
2018-03-11T07:24:06.669Z,89.35
2018-03-11T07:25:13.384Z,89.38
2018-03-11T07:26:20.058Z,89.40
2018-03-11T07:27:26.779Z,89.41
2018-03-11T07:28:33.493Z,89.45
2018-03-11T07:29:40.228Z,89.49
2018-03-11T07:30:46.939Z,89.55
2018-03-11T07:31:53.708Z,89.57
2018-03-11T07:33:00.413Z,89.61
2018-03-11T07:34:07.116Z,89.66
2018-03-11T07:35:13.808Z,89.72
2018-03-11T07:36:20.512Z,89.78
2018-03-11T07:37:27.192Z,89.81
2018-03-11T07:38:33.931Z,89.87
2018-03-11T07:39:40.681Z,89.89
2018-03-11T07:40:47.438Z,89.99
2018-03-11T07:41:54.163Z,90.04
2018-03-11T07:43:00.928Z,90.07
2018-03-11T07:44:07.620Z,90.08
2018-03-11T07:45:14.347Z,90.11
2018-03-11T07:46:21.058Z,90.16
2018-03-11T07:47:27.908Z,90.25
2018-03-11T07:48:34.585Z,90.30
2018-03-11T07:49:41.312Z,90.35
2018-03-11T07:50:48.007Z,90.42
2018-03-11T07:51:54.689Z,90.50
2018-03-11T07:53:01.582Z,90.57
2018-03-11T07:54:08.280Z,90.60
2018-03-11T07:55:14.964Z,90.67
2018-03-11T07:56:21.693Z,90.72
2018-03-11T07:57:28.600Z,90.77
2018-03-11T07:58:35.361Z,90.85
2018-03-11T07:59:42.267Z,90.92
2018-03-11T08:00:49.034Z,90.96
2018-03-11T08:01:56.018Z,91.02
2018-03-11T08:03:02.765Z,91.09
2018-03-11T08:04:09.492Z,91.15
2018-03-11T08:05:16.244Z,91.22
2018-03-11T08:06:22.973Z,91.26
2018-03-11T08:07:29.782Z,91.31
2018-03-11T08:08:36.568Z,91.36
2018-03-11T08:09:43.503Z,91.39
2018-03-11T08:10:50.319Z,91.49
2018-03-11T08:11:57.132Z,91.51
2018-03-11T08:13:03.913Z,91.57
2018-03-11T08:14:10.704Z,91.64
2018-03-11T08:15:17.916Z,91.68
2018-03-11T08:16:24.168Z,91.72
2018-03-11T08:17:30.941Z,91.77
2018-03-11T08:18:37.680Z,91.83
2018-03-11T08:19:44.477Z,91.87
2018-03-11T08:20:51.211Z,91.91
2018-03-11T08:21:57.948Z,91.90
2018-03-11T08:23:04.803Z,91.95
2018-03-11T08:24:11.968Z,91.96
2018-03-11T08:25:19.068Z,92.00
2018-03-11T08:26:26.588Z,92.04
2018-03-11T08:27:32.888Z,92.06
2018-03-11T08:28:39.677Z,92.12
2018-03-11T08:29:46.636Z,92.16
2018-03-11T08:30:53.401Z,92.20
2018-03-11T08:32:00.120Z,92.21
2018-03-11T08:33:06.840Z,92.29
2018-03-11T08:34:13.697Z,92.29
2018-03-11T08:35:21.077Z,92.32
2018-03-11T08:36:27.329Z,92.39
2018-03-11T08:37:34.106Z,92.41
2018-03-11T08:38:40.928Z,92.42
2018-03-11T08:39:47.668Z,92.45
2018-03-11T08:40:54.393Z,92.49
2018-03-11T08:42:01.220Z,92.54
2018-03-11T08:43:08.055Z,92.60
2018-03-11T08:44:14.840Z,92.63
2018-03-11T08:45:21.624Z,92.65
2018-03-11T08:46:28.471Z,92.67
2018-03-11T08:47:35.220Z,92.73
2018-03-11T08:48:42.022Z,92.70
2018-03-11T08:49:48.836Z,92.73
2018-03-11T08:50:55.633Z,92.74
2018-03-11T08:52:02.388Z,92.79
2018-03-11T08:53:09.208Z,92.81
2018-03-11T08:54:16.073Z,92.84
2018-03-11T08:55:22.902Z,92.90
2018-03-11T08:56:29.657Z,92.97
2018-03-11T08:57:36.493Z,93.01
2018-03-11T08:58:43.393Z,93.05
2018-03-11T08:59:50.408Z,93.08
2018-03-11T09:00:57.528Z,93.08
2018-03-11T09:02:04.405Z,93.12
2018-03-11T09:03:11.408Z,93.15
2018-03-11T09:04:18.229Z,93.15
2018-03-11T09:05:24.985Z,93.19
2018-03-11T09:06:31.691Z,93.26
2018-03-11T09:07:38.548Z,93.27
2018-03-11T09:08:45.422Z,93.29
2018-03-11T09:09:52.344Z,93.33
2018-03-11T09:10:59.187Z,93.34
2018-03-11T09:12:06.293Z,93.37
2018-03-11T09:13:13.148Z,93.39
2018-03-11T09:14:19.933Z,93.41
2018-03-11T09:15:27.541Z,93.44
2018-03-11T09:16:33.520Z,93.47
2018-03-11T09:17:40.272Z,93.47
2018-03-11T09:18:47.111Z,93.52
2018-03-11T09:19:53.847Z,93.57
2018-03-11T09:21:00.592Z,93.62
2018-03-11T09:22:07.512Z,93.62
2018-03-11T09:23:14.368Z,93.64
2018-03-11T09:24:21.234Z,93.65
2018-03-11T09:25:28.058Z,93.70
2018-03-11T09:26:34.948Z,93.74
2018-03-11T09:27:41.779Z,93.74
2018-03-11T09:28:48.596Z,93.81
2018-03-11T09:29:55.601Z,93.83
2018-03-11T09:31:02.500Z,93.87
2018-03-11T09:32:09.093Z,93.93
2018-03-11T09:33:15.856Z,93.96
2018-03-11T09:34:22.608Z,94.01
2018-03-11T09:35:29.346Z,94.02
2018-03-11T09:36:36.136Z,94.01
2018-03-11T09:37:42.904Z,94.06
2018-03-11T09:38:49.596Z,94.08
2018-03-11T09:39:56.287Z,94.13
2018-03-11T09:41:03.025Z,94.13
2018-03-11T09:42:09.792Z,94.19
2018-03-11T09:43:16.765Z,94.21
2018-03-11T09:44:23.495Z,94.23
2018-03-11T09:45:30.196Z,94.27
2018-03-11T09:46:36.931Z,94.28
2018-03-11T09:47:43.650Z,94.33
2018-03-11T09:48:50.419Z,94.36
2018-03-11T09:49:57.187Z,94.39
2018-03-11T09:51:04.017Z,94.42
2018-03-11T09:52:10.751Z,94.40
2018-03-11T09:53:17.537Z,94.44
2018-03-11T09:54:24.244Z,94.44
2018-03-11T09:55:31.006Z,94.43
2018-03-11T09:56:37.710Z,94.44
2018-03-11T09:57:44.452Z,94.49
2018-03-11T09:58:51.227Z,94.51
2018-03-11T09:59:58.037Z,94.55
2018-03-11T10:01:04.713Z,94.61
2018-03-11T10:02:11.455Z,94.62
2018-03-11T10:03:18.176Z,94.64
2018-03-11T10:04:24.964Z,94.68
2018-03-11T10:05:31.713Z,94.71
2018-03-11T10:06:38.436Z,94.73
2018-03-11T10:07:45.142Z,94.76
2018-03-11T10:08:51.857Z,94.77
2018-03-11T10:09:58.685Z,94.77
2018-03-11T10:11:05.416Z,94.79
2018-03-11T10:12:12.119Z,94.81
2018-03-11T10:13:18.821Z,94.80
2018-03-11T10:14:25.552Z,94.82
2018-03-11T10:15:32.600Z,94.86
2018-03-11T10:16:39.438Z,94.87
2018-03-11T10:17:46.133Z,94.91
2018-03-11T10:18:52.845Z,94.93
2018-03-11T10:19:59.639Z,94.94
2018-03-11T10:21:06.480Z,94.98
2018-03-11T10:22:13.249Z,94.99
2018-03-11T10:23:20.012Z,94.99
2018-03-11T10:24:26.745Z,94.99
2018-03-11T10:25:33.559Z,95.01
2018-03-11T10:26:40.251Z,95.04
2018-03-11T10:27:47.024Z,95.08
2018-03-11T10:28:53.926Z,95.11
2018-03-11T10:30:00.824Z,95.12
2018-03-11T10:31:07.683Z,95.16
2018-03-11T10:32:14.361Z,95.21
2018-03-11T10:33:21.069Z,95.23
2018-03-11T10:34:28.817Z,95.23
2018-03-11T10:35:34.611Z,95.26
2018-03-11T10:36:41.353Z,95.28
2018-03-11T10:37:48.113Z,95.29
2018-03-11T10:38:54.790Z,95.29
2018-03-11T10:40:01.468Z,95.34
2018-03-11T10:41:08.267Z,95.34
2018-03-11T10:42:14.980Z,95.33
2018-03-11T10:43:21.652Z,95.33
2018-03-11T10:44:28.461Z,95.33
2018-03-11T10:45:35.232Z,95.33
2018-03-11T10:46:42.001Z,95.35
2018-03-11T10:47:48.720Z,95.35
2018-03-11T10:48:55.448Z,95.37
2018-03-11T10:50:02.228Z,95.35
2018-03-11T10:51:08.948Z,95.34
2018-03-11T10:52:15.656Z,95.35
2018-03-11T10:53:22.359Z,95.35
2018-03-11T10:54:29.118Z,95.36
2018-03-11T10:55:35.905Z,95.35
2018-03-11T10:56:42.724Z,95.36
2018-03-11T10:57:49.464Z,95.37
2018-03-11T10:58:56.335Z,95.35
2018-03-11T11:00:03.205Z,95.36
2018-03-11T11:01:10.037Z,95.33
2018-03-11T11:02:17.020Z,95.36
2018-03-11T11:03:24.033Z,95.37
2018-03-11T11:04:30.839Z,95.38
2018-03-11T11:05:42.700Z,95.42
2018-03-11T11:06:44.904Z,95.43
2018-03-11T11:07:51.617Z,95.42
2018-03-11T11:08:58.396Z,95.40
2018-03-11T11:10:05.171Z,95.38
2018-03-11T11:11:11.931Z,95.36
2018-03-11T11:12:18.724Z,95.33
2018-03-11T11:13:25.466Z,95.32
2018-03-11T11:14:32.212Z,95.30
2018-03-11T11:15:39.294Z,95.31
2018-03-11T11:16:46.249Z,95.31
2018-03-11T11:17:53.282Z,95.29
2018-03-11T11:18:59.717Z,95.30
2018-03-11T11:20:06.702Z,95.29
2018-03-11T11:21:13.495Z,95.28
2018-03-11T11:22:20.191Z,95.28
2018-03-11T11:23:26.980Z,95.26
2018-03-11T11:24:33.727Z,95.25
2018-03-11T11:25:40.463Z,95.25
2018-03-11T11:26:47.247Z,95.25
2018-03-11T11:27:53.949Z,95.23
2018-03-11T11:29:00.888Z,95.23
2018-03-11T11:30:07.560Z,95.21
2018-03-11T11:31:14.352Z,95.19
2018-03-11T11:32:21.060Z,95.21
2018-03-11T11:33:27.847Z,95.18
2018-03-11T11:34:34.522Z,95.17
2018-03-11T11:35:41.299Z,95.15
2018-03-11T11:36:48.122Z,95.14
2018-03-11T11:37:54.819Z,95.15
2018-03-11T11:39:01.693Z,95.15
2018-03-11T11:40:08.534Z,95.11
2018-03-11T11:41:15.314Z,95.06
2018-03-11T11:42:22.083Z,95.02
2018-03-11T11:43:28.879Z,94.98
2018-03-11T11:44:35.632Z,94.96
2018-03-11T11:45:42.742Z,94.93
2018-03-11T11:46:49.580Z,94.92
2018-03-11T11:47:56.360Z,94.90
2018-03-11T11:49:03.115Z,94.91
2018-03-11T11:50:09.937Z,94.88
2018-03-11T11:51:16.743Z,94.87
2018-03-11T11:52:23.485Z,94.85
2018-03-11T11:53:30.267Z,94.86
2018-03-11T11:54:36.952Z,94.83
2018-03-11T11:55:43.760Z,94.80
2018-03-11T11:56:50.479Z,94.82
2018-03-11T11:57:57.281Z,94.80
2018-03-11T11:59:04.053Z,94.76
2018-03-11T12:00:10.787Z,94.75
2018-03-11T12:01:17.536Z,94.74
2018-03-11T12:02:24.284Z,94.72
2018-03-11T12:03:31.016Z,94.73
2018-03-11T12:04:37.736Z,94.71
2018-03-11T12:05:44.503Z,94.70
2018-03-11T12:06:51.288Z,94.71
2018-03-11T12:07:58.085Z,94.74
2018-03-11T12:09:04.836Z,94.72
2018-03-11T12:10:12.005Z,94.72
2018-03-11T12:11:18.964Z,94.71
2018-03-11T12:12:25.739Z,94.73
2018-03-11T12:13:32.574Z,94.75
2018-03-11T12:14:39.420Z,94.73
2018-03-11T12:15:47.628Z,94.76
2018-03-11T12:16:56.295Z,94.78
2018-03-11T12:17:59.820Z,94.80
2018-03-11T12:19:06.781Z,94.78
2018-03-11T12:20:13.778Z,94.79
2018-03-11T12:21:20.792Z,94.80
2018-03-11T12:22:29.513Z,94.83
2018-03-11T12:23:35.754Z,94.83
2018-03-11T12:24:41.581Z,94.84
2018-03-11T12:25:48.461Z,94.85
2018-03-11T12:26:55.311Z,94.85
2018-03-11T12:28:02.121Z,94.88
2018-03-11T12:29:08.903Z,94.87
2018-03-11T12:30:15.693Z,94.90
2018-03-11T12:31:22.461Z,94.92
2018-03-11T12:32:29.224Z,94.92
2018-03-11T12:33:36.014Z,94.97
2018-03-11T12:34:42.881Z,95.00
2018-03-11T12:35:49.788Z,95.07
2018-03-11T12:36:56.512Z,95.08
2018-03-11T12:38:03.281Z,95.09
2018-03-11T12:39:10.032Z,95.12
2018-03-11T12:40:16.801Z,95.13
2018-03-11T12:41:23.535Z,95.18
2018-03-11T12:42:30.276Z,95.16
2018-03-11T12:43:37.048Z,95.17
2018-03-11T12:44:43.815Z,95.16
2018-03-11T12:45:50.594Z,95.17
2018-03-11T12:46:57.312Z,95.21
2018-03-11T12:48:04.190Z,95.19
2018-03-11T12:49:10.953Z,95.14
2018-03-11T12:50:17.756Z,95.08
2018-03-11T12:51:24.507Z,95.07
2018-03-11T12:52:31.243Z,95.04
2018-03-11T12:53:37.977Z,95.04
2018-03-11T12:54:44.700Z,95.02
2018-03-11T12:55:51.412Z,95.02
2018-03-11T12:56:58.146Z,94.99
2018-03-11T12:58:04.991Z,94.99
2018-03-11T12:59:11.685Z,95.02
2018-03-11T13:00:18.425Z,95.00
2018-03-11T13:01:25.120Z,94.98
2018-03-11T13:02:31.915Z,95.00
2018-03-11T13:03:38.706Z,95.02
2018-03-11T13:04:45.427Z,95.02
2018-03-11T13:05:52.188Z,95.02
2018-03-11T13:06:59.245Z,95.05
2018-03-11T13:08:06.084Z,95.06
2018-03-11T13:09:12.855Z,95.04
2018-03-11T13:10:19.540Z,95.04
2018-03-11T13:11:26.253Z,95.05
2018-03-11T13:12:32.977Z,95.07
2018-03-11T13:13:39.853Z,95.09
2018-03-11T13:14:46.617Z,95.09
2018-03-11T13:15:53.359Z,95.09
2018-03-11T13:17:00.381Z,95.11
2018-03-11T13:18:07.238Z,95.12
2018-03-11T13:19:15.003Z,95.17
2018-03-11T13:20:21.293Z,95.15
2018-03-11T13:21:28.172Z,95.17
2018-03-11T13:22:34.889Z,95.18
2018-03-11T13:23:41.624Z,95.21
2018-03-11T13:24:48.333Z,95.20
2018-03-11T13:25:55.142Z,95.24
2018-03-11T13:27:01.881Z,95.26
2018-03-11T13:28:08.684Z,95.25
2018-03-11T13:29:15.961Z,95.27
2018-03-11T13:30:22.691Z,95.28
2018-03-11T13:31:29.436Z,95.29
2018-03-11T13:32:36.188Z,95.28
2018-03-11T13:34:52.408Z,95.29
2018-03-11T13:35:59.115Z,95.28
2018-03-11T13:37:05.964Z,95.29
2018-03-11T13:38:12.697Z,95.30
2018-03-11T13:39:19.675Z,95.28
2018-03-11T13:40:26.636Z,95.29
2018-03-11T13:41:33.551Z,95.23
2018-03-11T13:42:40.282Z,95.26
2018-03-11T13:43:46.984Z,95.24
2018-03-11T13:44:53.744Z,95.22
2018-03-11T13:46:00.609Z,95.20
2018-03-11T13:47:10.092Z,95.18
2018-03-11T13:48:16.899Z,95.19
2018-03-11T13:49:23.900Z,95.21
2018-03-11T13:50:30.625Z,95.17
2018-03-11T13:51:37.356Z,95.12
2018-03-11T13:52:44.198Z,95.10
2018-03-11T13:53:56.592Z,95.08
2018-03-11T13:55:03.380Z,95.09
2018-03-11T13:56:10.521Z,95.04
2018-03-11T13:57:17.251Z,95.03
2018-03-11T13:58:24.228Z,95.01
2018-03-11T13:59:31.198Z,95.00
2018-03-11T14:00:37.967Z,94.97
2018-03-11T14:01:44.691Z,94.96
2018-03-11T14:02:51.421Z,94.93
2018-03-11T14:03:58.130Z,94.89
2018-03-11T14:05:04.832Z,94.86
2018-03-11T14:06:11.661Z,94.85
2018-03-11T14:07:18.348Z,94.82
2018-03-11T14:08:25.090Z,94.78
2018-03-11T14:09:31.840Z,94.72
2018-03-11T14:10:38.563Z,94.72
2018-03-11T14:11:45.308Z,94.70
2018-03-11T14:12:52.015Z,94.67
2018-03-11T14:13:58.737Z,94.66
2018-03-11T14:15:05.484Z,94.60
2018-03-11T14:16:12.193Z,94.54
2018-03-11T14:17:18.948Z,94.49
2018-03-11T14:18:25.635Z,94.46
2018-03-11T14:19:32.520Z,94.39
2018-03-11T14:20:39.281Z,94.30